createdAt,value
2016-10-24T00:00:43.062Z,996.44
2016-10-24T00:01:51.795Z,996.41
2016-10-24T00:03:00.493Z,996.39
2016-10-24T00:04:09.194Z,996.43
2016-10-24T00:05:17.904Z,996.45
2016-10-24T00:06:26.638Z,996.42
2016-10-24T00:07:35.338Z,996.47
2016-10-24T00:08:44.041Z,996.43
2016-10-24T00:09:52.743Z,996.44
2016-10-24T00:11:01.455Z,996.5
2016-10-24T00:12:10.148Z,996.44
2016-10-24T00:13:18.914Z,996.43
2016-10-24T00:14:27.609Z,996.46
2016-10-24T00:15:36.343Z,996.48
2016-10-24T00:16:45.075Z,996.51
2016-10-24T00:17:53.775Z,996.52
2016-10-24T00:19:02.476Z,996.56
2016-10-24T00:20:11.214Z,996.52
2016-10-24T00:21:19.912Z,996.55
2016-10-24T00:22:28.613Z,996.55
2016-10-24T00:23:37.313Z,996.55
2016-10-24T00:24:46.051Z,996.55
2016-10-24T00:25:54.748Z,996.51
2016-10-24T00:27:03.446Z,996.46
2016-10-24T00:28:12.145Z,996.51
2016-10-24T00:29:20.841Z,996.49
2016-10-24T00:30:29.534Z,996.51
2016-10-24T00:31:38.225Z,996.5
2016-10-24T00:32:46.924Z,996.5
2016-10-24T00:33:55.618Z,996.5
2016-10-24T00:35:04.311Z,996.48
2016-10-24T00:36:13.012Z,996.51
2016-10-24T00:37:21.707Z,996.5
2016-10-24T00:38:30.411Z,996.47
2016-10-24T00:39:39.117Z,996.46
2016-10-24T00:40:47.832Z,996.5
2016-10-24T00:41:56.527Z,996.48
2016-10-24T00:43:05.227Z,996.44
2016-10-24T00:44:13.930Z,996.49
2016-10-24T00:45:22.631Z,996.49
2016-10-24T00:46:31.328Z,996.49
2016-10-24T00:47:40.031Z,996.49
2016-10-24T00:48:48.730Z,996.49
2016-10-24T00:49:57.430Z,996.49
2016-10-24T00:51:06.132Z,996.49
2016-10-24T00:52:14.833Z,996.47
2016-10-24T00:53:23.533Z,996.5
2016-10-24T00:54:32.270Z,996.5
2016-10-24T00:55:40.968Z,996.52
2016-10-24T00:56:49.660Z,996.49
2016-10-24T00:57:58.355Z,996.5
2016-10-24T00:59:07.058Z,996.53
2016-10-24T01:00:15.754Z,996.52
2016-10-24T01:01:24.449Z,996.53
2016-10-24T01:02:33.154Z,996.49
2016-10-24T01:03:41.856Z,996.49
2016-10-24T01:04:50.563Z,996.55
2016-10-24T01:05:59.261Z,996.55
2016-10-24T01:07:07.991Z,996.49
2016-10-24T01:08:16.692Z,996.48
2016-10-24T01:09:25.390Z,996.54
2016-10-24T01:10:34.084Z,996.48
2016-10-24T01:11:42.817Z,996.46
2016-10-24T01:12:51.561Z,996.51
2016-10-24T01:14:00.264Z,996.47
2016-10-24T01:15:08.961Z,996.49
2016-10-24T01:16:17.661Z,996.5
2016-10-24T01:17:26.394Z,996.48
2016-10-24T01:18:35.087Z,996.49
2016-10-24T01:19:43.787Z,996.51
2016-10-24T01:20:52.483Z,996.5
2016-10-24T01:22:01.183Z,996.48
2016-10-24T01:23:09.878Z,996.48
2016-10-24T01:24:18.570Z,996.52
2016-10-24T01:25:27.275Z,996.52
2016-10-24T01:26:35.976Z,996.46
2016-10-24T01:27:44.672Z,996.5
2016-10-24T01:28:53.374Z,996.54
2016-10-24T01:30:02.076Z,996.46
2016-10-24T01:31:10.788Z,996.46
2016-10-24T01:32:19.484Z,996.51
2016-10-24T01:33:28.186Z,996.51
2016-10-24T01:34:36.894Z,996.51
2016-10-24T01:35:45.624Z,996.49
2016-10-24T01:36:54.323Z,996.49
2016-10-24T01:38:03.021Z,996.48
2016-10-24T01:39:11.762Z,996.5
2016-10-24T01:40:20.470Z,996.49
2016-10-24T01:41:29.167Z,996.47
2016-10-24T01:42:37.865Z,996.48
2016-10-24T01:43:46.557Z,996.5
2016-10-24T01:44:55.252Z,996.5
2016-10-24T01:46:03.947Z,996.47
2016-10-24T01:47:12.651Z,996.49
2016-10-24T01:48:21.389Z,996.49
2016-10-24T01:49:30.097Z,996.48
2016-10-24T01:50:38.793Z,996.49
2016-10-24T01:51:47.494Z,996.49
2016-10-24T01:52:56.194Z,996.46
2016-10-24T01:54:04.890Z,996.46
2016-10-24T01:55:13.588Z,996.45
2016-10-24T01:56:22.598Z,996.48
2016-10-24T01:57:31.301Z,996.43
2016-10-24T01:58:39.998Z,996.41
2016-10-24T01:59:48.720Z,996.44
2016-10-24T02:00:57.417Z,996.47
2016-10-24T02:02:06.114Z,996.48
2016-10-24T02:03:14.814Z,996.44
2016-10-24T02:04:23.516Z,996.41
2016-10-24T02:05:32.210Z,996.43
2016-10-24T02:06:40.906Z,996.45
2016-10-24T02:07:49.663Z,996.43
2016-10-24T02:08:58.356Z,996.41
2016-10-24T02:10:07.056Z,996.45
2016-10-24T02:11:15.787Z,996.44
2016-10-24T02:12:24.489Z,996.44
2016-10-24T02:13:33.191Z,996.44
2016-10-24T02:14:41.891Z,996.46
2016-10-24T02:15:50.590Z,996.4
2016-10-24T02:16:59.297Z,996.47
2016-10-24T02:18:08.039Z,996.44
2016-10-24T02:19:16.752Z,996.49
2016-10-24T02:20:25.458Z,996.43
2016-10-24T02:21:34.155Z,996.45
2016-10-24T02:22:42.852Z,996.44
2016-10-24T02:23:51.546Z,996.42
2016-10-24T02:25:00.238Z,996.43
2016-10-24T02:26:08.940Z,996.45
2016-10-24T02:27:17.635Z,996.4
2016-10-24T02:28:26.339Z,996.36
2016-10-24T02:29:35.078Z,996.39
2016-10-24T02:30:43.786Z,996.41
2016-10-24T02:31:52.481Z,996.39
2016-10-24T02:33:01.181Z,996.36
2016-10-24T02:34:09.885Z,996.42
2016-10-24T02:35:18.585Z,996.42
2016-10-24T02:36:27.282Z,996.4
2016-10-24T02:37:35.979Z,996.39
2016-10-24T02:38:44.677Z,996.4
2016-10-24T02:39:53.373Z,996.38
2016-10-24T02:41:02.077Z,996.38
2016-10-24T02:42:10.787Z,996.39
2016-10-24T02:43:19.484Z,996.39
2016-10-24T02:44:28.186Z,996.38
2016-10-24T02:45:36.886Z,996.4
2016-10-24T02:46:45.583Z,996.39
2016-10-24T02:47:54.280Z,996.36
2016-10-24T02:49:02.977Z,996.39
2016-10-24T02:50:11.677Z,996.4
2016-10-24T02:51:20.373Z,996.43
2016-10-24T02:52:29.121Z,996.41
2016-10-24T02:53:37.822Z,996.48
2016-10-24T02:54:46.524Z,996.44
2016-10-24T02:55:55.227Z,996.43
2016-10-24T02:57:03.929Z,996.5
2016-10-24T02:58:12.626Z,996.48
2016-10-24T02:59:21.324Z,996.43
2016-10-24T03:00:30.025Z,996.44
2016-10-24T03:01:38.724Z,996.5
2016-10-24T03:02:47.424Z,996.49
2016-10-24T03:03:56.117Z,996.52
2016-10-24T03:05:04.812Z,996.5
2016-10-24T03:06:13.509Z,996.49
2016-10-24T03:07:22.210Z,996.49
2016-10-24T03:08:30.905Z,996.52
2016-10-24T03:09:39.603Z,996.52
2016-10-24T03:10:48.302Z,996.52
2016-10-24T03:11:56.999Z,996.49
2016-10-24T03:13:05.701Z,996.46
2016-10-24T03:14:14.401Z,996.5
2016-10-24T03:15:23.100Z,996.51
2016-10-24T03:16:31.834Z,996.45
2016-10-24T03:17:40.541Z,996.47
2016-10-24T03:18:49.242Z,996.45
2016-10-24T03:19:57.950Z,996.47
2016-10-24T03:21:06.658Z,996.48
2016-10-24T03:22:15.360Z,996.47
2016-10-24T03:23:24.060Z,996.48
2016-10-24T03:24:32.759Z,996.52
2016-10-24T03:25:41.460Z,996.49
2016-10-24T03:26:50.172Z,996.52
2016-10-24T03:27:58.868Z,996.53
2016-10-24T03:29:07.571Z,996.52
2016-10-24T03:30:16.267Z,996.49
2016-10-24T03:31:24.972Z,996.54
2016-10-24T03:32:33.674Z,996.54
2016-10-24T03:33:42.379Z,996.52
2016-10-24T03:34:51.075Z,996.55
2016-10-24T03:35:59.775Z,996.54
2016-10-24T03:37:08.473Z,996.59
2016-10-24T03:38:17.212Z,996.54
2016-10-24T03:39:25.907Z,996.51
2016-10-24T03:40:34.602Z,996.53
2016-10-24T03:41:43.623Z,996.54
2016-10-24T03:42:52.322Z,996.51
2016-10-24T03:44:01.024Z,996.52
2016-10-24T03:45:09.755Z,996.51
2016-10-24T03:46:18.454Z,996.48
2016-10-24T03:47:27.149Z,996.53
2016-10-24T03:48:35.851Z,996.51
2016-10-24T03:49:44.559Z,996.5
2016-10-24T03:50:53.308Z,996.46
2016-10-24T03:52:02.005Z,996.48
2016-10-24T03:53:11.015Z,996.48
2016-10-24T03:54:19.713Z,996.6
2016-10-24T03:55:28.408Z,996.53
2016-10-24T03:56:37.105Z,996.47
2016-10-24T03:57:45.803Z,996.51
2016-10-24T03:58:54.498Z,996.49
2016-10-24T04:00:03.510Z,996.55
2016-10-24T04:01:12.212Z,996.61
2016-10-24T04:02:20.916Z,996.58
2016-10-24T04:03:29.619Z,996.56
2016-10-24T04:04:38.355Z,996.5
2016-10-24T04:05:47.058Z,996.57
2016-10-24T04:06:55.762Z,996.55
2016-10-24T04:08:04.461Z,996.49
2016-10-24T04:09:13.157Z,996.53
2016-10-24T04:10:21.855Z,996.47
2016-10-24T04:11:30.552Z,996.51
2016-10-24T04:12:39.249Z,996.59
2016-10-24T04:13:47.954Z,996.56
2016-10-24T04:14:56.650Z,996.58
2016-10-24T04:16:05.344Z,996.56
2016-10-24T04:17:14.048Z,996.59
2016-10-24T04:18:22.748Z,996.46
2016-10-24T04:19:31.444Z,996.6
2016-10-24T04:20:40.153Z,996.58
2016-10-24T04:21:48.844Z,996.56
2016-10-24T04:22:57.543Z,996.57
2016-10-24T04:24:06.248Z,996.59
2016-10-24T04:25:14.955Z,996.55
2016-10-24T04:26:23.651Z,996.58
2016-10-24T04:27:32.348Z,996.58
2016-10-24T04:28:41.047Z,996.59
2016-10-24T04:29:49.747Z,996.55
2016-10-24T04:30:58.658Z,996.57
2016-10-24T04:32:07.352Z,996.57
2016-10-24T04:33:16.049Z,996.59
2016-10-24T04:34:24.746Z,996.63
2016-10-24T04:35:33.481Z,996.63
2016-10-24T04:36:42.185Z,996.62
2016-10-24T04:37:50.877Z,996.63
2016-10-24T04:38:59.571Z,996.62
2016-10-24T04:40:08.269Z,996.61
2016-10-24T04:41:16.965Z,996.61
2016-10-24T04:42:25.662Z,996.65
2016-10-24T04:43:34.357Z,996.66
2016-10-24T04:44:43.095Z,996.64
2016-10-24T04:45:51.791Z,996.66
2016-10-24T04:47:00.491Z,996.63
2016-10-24T04:48:09.190Z,996.7
2016-10-24T04:49:17.929Z,996.68
2016-10-24T04:50:26.625Z,996.61
2016-10-24T04:51:35.329Z,996.67
2016-10-24T04:52:44.023Z,996.66
2016-10-24T04:53:53.012Z,996.65
2016-10-24T04:55:01.711Z,996.67
2016-10-24T04:56:10.447Z,996.65
2016-10-24T04:57:19.147Z,996.64
2016-10-24T04:58:27.857Z,996.64
2016-10-24T04:59:36.588Z,996.63
2016-10-24T05:00:45.289Z,996.65
2016-10-24T05:01:53.987Z,996.67
2016-10-24T05:03:03.013Z,996.7
2016-10-24T05:04:11.719Z,996.72
2016-10-24T05:05:20.417Z,996.69
2016-10-24T05:06:29.116Z,996.68
2016-10-24T05:07:37.815Z,996.7
2016-10-24T05:08:46.514Z,996.67
2016-10-24T05:09:55.226Z,996.69
2016-10-24T05:11:03.922Z,996.67
2016-10-24T05:12:12.620Z,996.72
2016-10-24T05:13:21.317Z,996.73
2016-10-24T05:14:30.011Z,996.7
2016-10-24T05:15:38.704Z,996.71
2016-10-24T05:16:47.405Z,996.74
2016-10-24T05:17:56.100Z,996.71
2016-10-24T05:19:04.797Z,996.73
2016-10-24T05:20:13.494Z,996.7
2016-10-24T05:21:22.197Z,996.76
2016-10-24T05:22:30.889Z,996.74
2016-10-24T05:23:39.596Z,996.78
2016-10-24T05:24:48.293Z,996.76
2016-10-24T05:25:56.992Z,996.79
2016-10-24T05:27:05.695Z,996.79
2016-10-24T05:28:14.396Z,996.79
2016-10-24T05:29:23.094Z,996.8
2016-10-24T05:30:31.797Z,996.82
2016-10-24T05:31:40.490Z,996.8
2016-10-24T05:32:49.193Z,996.81
2016-10-24T05:33:57.893Z,996.81
2016-10-24T05:35:06.634Z,996.79
2016-10-24T05:36:15.335Z,996.8
2016-10-24T05:37:24.028Z,996.85
2016-10-24T05:38:32.764Z,996.82
2016-10-24T05:39:41.457Z,996.84
2016-10-24T05:40:50.197Z,996.81
2016-10-24T05:41:58.892Z,996.84
2016-10-24T05:43:07.592Z,996.84
2016-10-24T05:44:16.288Z,996.8
2016-10-24T05:45:24.986Z,996.85
2016-10-24T05:46:33.680Z,996.83
2016-10-24T05:47:42.382Z,996.84
2016-10-24T05:48:51.087Z,996.84
2016-10-24T05:49:59.783Z,996.87
2016-10-24T05:51:08.477Z,996.86
2016-10-24T05:52:17.209Z,996.83
2016-10-24T05:53:25.906Z,996.86
2016-10-24T05:54:34.683Z,996.87
2016-10-24T05:55:43.378Z,996.84
2016-10-24T05:56:52.080Z,996.89
2016-10-24T05:58:00.785Z,996.89
2016-10-24T05:59:09.493Z,996.87
2016-10-24T06:00:18.191Z,996.86
2016-10-24T06:01:26.896Z,996.89
2016-10-24T06:02:35.601Z,996.86
2016-10-24T06:03:44.296Z,996.86
2016-10-24T06:04:52.993Z,996.89
2016-10-24T06:06:01.689Z,996.86
2016-10-24T06:07:10.400Z,996.92
2016-10-24T06:08:19.104Z,996.88
2016-10-24T06:09:27.889Z,996.89
2016-10-24T06:10:36.585Z,996.95
2016-10-24T06:11:45.313Z,996.93
2016-10-24T06:12:54.006Z,996.92
2016-10-24T06:14:02.709Z,996.89
2016-10-24T06:15:11.406Z,996.88
2016-10-24T06:16:20.114Z,996.88
2016-10-24T06:17:29.165Z,996.92
2016-10-24T06:18:37.866Z,996.84
2016-10-24T06:19:46.566Z,996.87
2016-10-24T06:20:55.590Z,996.85
2016-10-24T06:22:04.285Z,996.88
2016-10-24T06:23:13.307Z,996.9
2016-10-24T06:24:22.003Z,996.87
2016-10-24T06:25:30.705Z,996.93
2016-10-24T06:26:39.718Z,996.92
2016-10-24T06:27:48.415Z,996.96
2016-10-24T06:28:57.110Z,996.95
2016-10-24T06:30:05.813Z,996.94
2016-10-24T06:31:14.515Z,996.96
2016-10-24T06:32:23.211Z,996.99
2016-10-24T06:33:31.916Z,996.98
2016-10-24T06:34:40.618Z,997
2016-10-24T06:35:49.376Z,996.99
2016-10-24T06:36:58.386Z,997.05
2016-10-24T06:38:07.408Z,997.01
2016-10-24T06:39:16.105Z,996.98
2016-10-24T06:40:24.805Z,997.01
2016-10-24T06:41:33.502Z,997.04
2016-10-24T06:42:42.240Z,997.03
2016-10-24T06:43:51.030Z,997.06
2016-10-24T06:44:59.787Z,997.1
2016-10-24T06:46:09.481Z,997.12
2016-10-24T06:47:18.600Z,997.1
2016-10-24T06:48:27.311Z,997.15
2016-10-24T06:49:36.363Z,997.13
2016-10-24T06:50:45.072Z,997.17
2016-10-24T06:51:53.775Z,997.16
2016-10-24T06:53:02.531Z,997.19
2016-10-24T06:54:11.227Z,997.15
2016-10-24T06:55:19.927Z,997.18
2016-10-24T06:56:28.629Z,997.2
2016-10-24T06:57:37.331Z,997.2
2016-10-24T06:58:46.346Z,997.28
2016-10-24T06:59:55.043Z,997.26
2016-10-24T07:01:03.745Z,997.29
2016-10-24T07:02:12.451Z,997.27
2016-10-24T07:03:21.148Z,997.3
2016-10-24T07:04:29.860Z,997.32
2016-10-24T07:05:38.917Z,997.33
2016-10-24T07:06:47.612Z,997.38
2016-10-24T07:07:56.308Z,997.34
2016-10-24T07:09:05.003Z,997.36
2016-10-24T07:10:13.699Z,997.37
2016-10-24T07:11:22.396Z,997.38
2016-10-24T07:12:31.096Z,997.41
2016-10-24T07:13:40.120Z,997.44
2016-10-24T07:14:48.818Z,997.46
2016-10-24T07:15:57.511Z,997.43
2016-10-24T07:17:06.243Z,997.44
2016-10-24T07:18:14.946Z,997.41
2016-10-24T07:19:23.648Z,997.38
2016-10-24T07:20:32.350Z,997.45
2016-10-24T07:21:41.060Z,997.4
2016-10-24T07:22:49.757Z,997.4
2016-10-24T07:23:58.453Z,997.4
2016-10-24T07:25:07.147Z,997.41
2016-10-24T07:26:15.853Z,997.43
2016-10-24T07:27:24.568Z,997.41
2016-10-24T07:28:33.262Z,997.43
2016-10-24T07:29:41.971Z,997.41
2016-10-24T07:30:50.669Z,997.45
2016-10-24T07:31:59.364Z,997.46
2016-10-24T07:33:08.073Z,997.43
2016-10-24T07:34:16.766Z,997.46
2016-10-24T07:35:25.464Z,997.44
2016-10-24T07:36:34.164Z,997.47
2016-10-24T07:37:42.863Z,997.43
2016-10-24T07:38:51.559Z,997.48
2016-10-24T07:40:00.256Z,997.43
2016-10-24T07:41:08.955Z,997.48
2016-10-24T07:42:17.654Z,997.47
2016-10-24T07:43:26.356Z,997.53
2016-10-24T07:44:35.060Z,997.48
2016-10-24T07:45:43.755Z,997.46
2016-10-24T07:46:52.455Z,997.44
2016-10-24T07:48:01.155Z,997.4
2016-10-24T07:49:09.854Z,997.4
2016-10-24T07:50:18.558Z,997.46
2016-10-24T07:51:27.293Z,997.45
2016-10-24T07:52:36.023Z,997.48
2016-10-24T07:53:44.721Z,997.45
2016-10-24T07:54:53.419Z,997.48
2016-10-24T07:56:02.123Z,997.48
2016-10-24T07:57:10.819Z,997.46
2016-10-24T07:58:19.514Z,997.47
2016-10-24T07:59:28.535Z,997.48
2016-10-24T08:00:37.231Z,997.48
2016-10-24T08:01:45.932Z,997.53
2016-10-24T08:02:54.630Z,997.49
2016-10-24T08:04:03.337Z,997.46
2016-10-24T08:05:12.380Z,997.43
2016-10-24T08:06:21.198Z,997.46
2016-10-24T08:07:29.900Z,997.46
2016-10-24T08:08:38.598Z,997.47
2016-10-24T08:09:47.299Z,997.47
2016-10-24T08:10:56.001Z,997.51
2016-10-24T08:12:04.706Z,997.5
2016-10-24T08:13:13.719Z,997.5
2016-10-24T08:14:22.419Z,997.52
2016-10-24T08:15:31.122Z,997.52
2016-10-24T08:16:39.824Z,997.52
2016-10-24T08:17:48.517Z,997.5
2016-10-24T08:18:57.218Z,997.54
2016-10-24T08:20:05.924Z,997.57
2016-10-24T08:21:14.625Z,997.55
2016-10-24T08:22:23.322Z,997.56
2016-10-24T08:23:32.018Z,997.55
2016-10-24T08:24:40.749Z,997.55
2016-10-24T08:25:49.443Z,997.61
2016-10-24T08:26:58.142Z,997.58
2016-10-24T08:28:06.837Z,997.61
2016-10-24T08:29:15.532Z,997.59
2016-10-24T08:30:24.234Z,997.6
2016-10-24T08:31:33.249Z,997.65
2016-10-24T08:32:41.948Z,997.65
2016-10-24T08:33:50.643Z,997.65
2016-10-24T08:34:59.356Z,997.67
2016-10-24T08:36:08.387Z,997.64
2016-10-24T08:37:17.084Z,997.66
2016-10-24T08:38:25.780Z,997.64
2016-10-24T08:39:34.483Z,997.64
2016-10-24T08:40:43.177Z,997.68
2016-10-24T08:41:51.894Z,997.66
2016-10-24T08:43:00.590Z,997.58
2016-10-24T08:44:09.282Z,997.64
2016-10-24T08:45:17.981Z,997.67
2016-10-24T08:46:26.680Z,997.63
2016-10-24T08:47:35.386Z,997.64
2016-10-24T08:48:44.082Z,997.61
2016-10-24T08:49:52.787Z,997.56
2016-10-24T08:51:01.483Z,997.6
2016-10-24T08:52:10.182Z,997.58
2016-10-24T08:53:19.203Z,997.62
2016-10-24T08:54:27.898Z,997.63
2016-10-24T08:55:36.602Z,997.63
2016-10-24T08:56:45.297Z,997.6
2016-10-24T08:57:54.032Z,997.61
2016-10-24T08:59:02.740Z,997.58
2016-10-24T09:00:11.441Z,997.57
2016-10-24T09:01:20.140Z,997.59
2016-10-24T09:02:28.871Z,997.56
2016-10-24T09:03:37.603Z,997.59
2016-10-24T09:04:46.299Z,997.58
2016-10-24T09:05:55.003Z,997.54
2016-10-24T09:07:03.700Z,997.55
2016-10-24T09:08:12.399Z,997.53
2016-10-24T09:09:21.111Z,997.54
2016-10-24T09:10:29.814Z,997.55
2016-10-24T09:11:38.554Z,997.55
2016-10-24T09:12:47.251Z,997.54
2016-10-24T09:13:55.949Z,997.51
2016-10-24T09:15:04.683Z,997.54
2016-10-24T09:16:13.385Z,997.53
2016-10-24T09:17:22.087Z,997.54
2016-10-24T09:18:30.819Z,997.51
2016-10-24T09:19:39.533Z,997.54
2016-10-24T09:20:48.239Z,997.5
2016-10-24T09:21:56.935Z,997.52
2016-10-24T09:23:05.947Z,997.52
2016-10-24T09:24:14.649Z,997.51
2016-10-24T09:25:23.352Z,997.52
2016-10-24T09:26:32.048Z,997.58
2016-10-24T09:27:40.857Z,997.53
2016-10-24T09:28:49.556Z,997.57
2016-10-24T09:29:58.269Z,997.58
2016-10-24T09:31:06.999Z,997.58
2016-10-24T09:32:15.700Z,997.58
2016-10-24T09:33:24.398Z,997.58
2016-10-24T09:34:33.098Z,997.58
2016-10-24T09:35:41.796Z,997.6
2016-10-24T09:36:50.525Z,997.59
2016-10-24T09:37:59.230Z,997.6
2016-10-24T09:39:07.931Z,997.61
2016-10-24T09:40:16.633Z,997.58
2016-10-24T09:41:25.335Z,997.58
2016-10-24T09:42:34.030Z,997.57
2016-10-24T09:43:42.725Z,997.56
2016-10-24T09:44:51.470Z,997.58
2016-10-24T09:46:00.486Z,997.54
2016-10-24T09:47:09.187Z,997.53
2016-10-24T09:48:17.899Z,997.53
2016-10-24T09:49:26.948Z,997.51
2016-10-24T09:50:35.698Z,997.52
2016-10-24T09:51:44.394Z,997.56
2016-10-24T09:52:53.095Z,997.52
2016-10-24T09:54:01.808Z,997.55
2016-10-24T09:55:10.514Z,997.54
2016-10-24T09:56:19.209Z,997.54
2016-10-24T09:57:27.904Z,997.54
2016-10-24T09:58:36.607Z,997.49
2016-10-24T09:59:45.304Z,997.48
2016-10-24T10:00:54.002Z,997.45
2016-10-24T10:02:02.701Z,997.43
2016-10-24T10:03:11.405Z,997.38
2016-10-24T10:04:20.100Z,997.4
2016-10-24T10:05:28.798Z,997.34
2016-10-24T10:06:37.537Z,997.34
2016-10-24T10:07:46.230Z,997.36
2016-10-24T10:08:54.927Z,997.33
2016-10-24T10:10:03.632Z,997.32
2016-10-24T10:11:12.329Z,997.31
2016-10-24T10:12:21.041Z,997.32
2016-10-24T10:13:30.054Z,997.36
2016-10-24T10:14:38.757Z,997.33
2016-10-24T10:15:47.461Z,997.35
2016-10-24T10:16:56.157Z,997.35
2016-10-24T10:18:04.857Z,997.36
2016-10-24T10:19:13.563Z,997.37
2016-10-24T10:20:22.273Z,997.36
2016-10-24T10:21:31.287Z,997.36
2016-10-24T10:22:39.986Z,997.37
2016-10-24T10:23:49.004Z,997.39
2016-10-24T10:24:57.705Z,997.41
2016-10-24T10:26:06.406Z,997.41
2016-10-24T10:27:15.113Z,997.46
2016-10-24T10:28:23.815Z,997.42
2016-10-24T10:29:32.515Z,997.38
2016-10-24T10:30:41.214Z,997.36
2016-10-24T10:31:49.919Z,997.34
2016-10-24T10:32:58.615Z,997.38
2016-10-24T10:34:07.313Z,997.34
2016-10-24T10:35:16.014Z,997.35
2016-10-24T10:36:24.711Z,997.35
2016-10-24T10:37:33.409Z,997.36
2016-10-24T10:38:42.119Z,997.36
2016-10-24T10:39:50.818Z,997.33
2016-10-24T10:40:59.514Z,997.32
2016-10-24T10:42:08.217Z,997.32
2016-10-24T10:43:16.926Z,997.3
2016-10-24T10:44:25.626Z,997.27
2016-10-24T10:45:34.321Z,997.31
2016-10-24T10:46:43.018Z,997.31
2016-10-24T10:47:51.716Z,997.28
2016-10-24T10:49:00.420Z,997.31
2016-10-24T10:50:09.435Z,997.29
2016-10-24T10:51:18.130Z,997.37
2016-10-24T10:52:26.828Z,997.32
2016-10-24T10:53:35.532Z,997.3
2016-10-24T10:54:44.235Z,997.33
2016-10-24T10:55:52.929Z,997.33
2016-10-24T10:57:01.630Z,997.29
2016-10-24T10:58:10.327Z,997.29
2016-10-24T10:59:19.026Z,997.32
2016-10-24T11:00:27.763Z,997.31
2016-10-24T11:01:36.470Z,997.31
2016-10-24T11:02:45.189Z,997.25
2016-10-24T11:03:53.884Z,997.31
2016-10-24T11:05:02.582Z,997.33
2016-10-24T11:06:11.326Z,997.29
2016-10-24T11:07:20.024Z,997.24
2016-10-24T11:08:28.722Z,997.26
2016-10-24T11:09:37.421Z,997.27
2016-10-24T11:10:46.120Z,997.27
2016-10-24T11:11:54.820Z,997.26
2016-10-24T11:13:03.517Z,997.28
2016-10-24T11:14:12.219Z,997.28
2016-10-24T11:15:20.916Z,997.27
2016-10-24T11:16:29.626Z,997.25
2016-10-24T11:17:38.326Z,997.26
2016-10-24T11:18:47.337Z,997.24
2016-10-24T11:19:56.031Z,997.2
2016-10-24T11:21:04.728Z,997.19
2016-10-24T11:22:13.424Z,997.19
2016-10-24T11:23:22.124Z,997.22
2016-10-24T11:24:30.828Z,997.22
2016-10-24T11:25:39.533Z,997.22
2016-10-24T11:26:48.230Z,997.2
2016-10-24T11:27:56.926Z,997.19
2016-10-24T11:29:05.627Z,997.23
2016-10-24T11:30:14.330Z,997.19
2016-10-24T11:31:23.026Z,997.2
2016-10-24T11:32:32.077Z,997.21
2016-10-24T11:33:40.792Z,997.23
2016-10-24T11:34:49.489Z,997.26
2016-10-24T11:35:58.189Z,997.24
2016-10-24T11:37:06.891Z,997.22
2016-10-24T11:38:15.590Z,997.23
2016-10-24T11:39:24.290Z,997.23
2016-10-24T11:40:32.984Z,997.23
2016-10-24T11:41:41.687Z,997.21
2016-10-24T11:42:50.385Z,997.23
2016-10-24T11:43:59.084Z,997.18
2016-10-24T11:45:07.793Z,997.22
2016-10-24T11:46:16.595Z,997.17
2016-10-24T11:47:25.286Z,997.21
2016-10-24T11:48:33.981Z,997.2
2016-10-24T11:49:42.688Z,997.21
2016-10-24T11:50:51.389Z,997.26
2016-10-24T11:52:00.084Z,997.25
2016-10-24T11:53:08.779Z,997.22
2016-10-24T11:54:17.475Z,997.23
2016-10-24T11:55:26.177Z,997.25
2016-10-24T11:56:34.871Z,997.27
2016-10-24T11:57:43.572Z,997.23
2016-10-24T11:58:52.267Z,997.23
2016-10-24T12:00:00.966Z,997.17
2016-10-24T12:01:09.672Z,997.19
2016-10-24T12:02:18.370Z,997.2
2016-10-24T12:03:27.069Z,997.18
2016-10-24T12:04:35.779Z,997.15
2016-10-24T12:05:44.479Z,997.16
2016-10-24T12:06:53.178Z,997.19
2016-10-24T12:08:01.875Z,997.06
2016-10-24T12:09:10.898Z,997.06
2016-10-24T12:10:19.592Z,997.02
2016-10-24T12:11:28.294Z,997.03
2016-10-24T12:12:36.997Z,997.03
2016-10-24T12:13:45.733Z,997.02
2016-10-24T12:14:54.430Z,997.01
2016-10-24T12:16:03.169Z,997.04
2016-10-24T12:17:11.868Z,997.02
2016-10-24T12:18:20.565Z,997.08
2016-10-24T12:19:29.264Z,997.04
2016-10-24T12:20:37.958Z,997.04
2016-10-24T12:21:46.655Z,997.01
2016-10-24T12:22:55.350Z,997.08
2016-10-24T12:24:04.044Z,997.06
2016-10-24T12:25:12.761Z,997.04
2016-10-24T12:26:21.462Z,997.05
2016-10-24T12:27:30.167Z,997.03
2016-10-24T12:28:38.858Z,997
2016-10-24T12:29:47.561Z,996.94
2016-10-24T12:30:56.257Z,996.95
2016-10-24T12:32:04.959Z,996.96
2016-10-24T12:33:13.657Z,996.94
2016-10-24T12:34:22.355Z,996.94
2016-10-24T12:35:31.046Z,996.9
2016-10-24T12:36:39.795Z,996.89
2016-10-24T12:37:48.491Z,996.9
2016-10-24T12:38:57.504Z,996.87
2016-10-24T12:40:06.200Z,996.89
2016-10-24T12:41:14.899Z,996.94
2016-10-24T12:42:23.599Z,996.9
2016-10-24T12:43:32.297Z,996.91
2016-10-24T12:44:41.046Z,996.94
2016-10-24T12:45:49.785Z,996.89
2016-10-24T12:46:58.512Z,996.89
2016-10-24T12:48:07.210Z,996.9
2016-10-24T12:49:15.909Z,996.87
2016-10-24T12:50:24.603Z,996.88
2016-10-24T12:51:33.311Z,996.9
2016-10-24T12:52:42.059Z,996.9
2016-10-24T12:53:50.754Z,996.93
2016-10-24T12:54:59.455Z,996.91
2016-10-24T12:56:08.346Z,996.92
2016-10-24T12:57:17.040Z,996.96
2016-10-24T12:58:25.735Z,997.01
2016-10-24T12:59:34.431Z,996.98
2016-10-24T13:00:43.124Z,996.96
2016-10-24T13:01:51.819Z,996.97
2016-10-24T13:03:00.543Z,997
2016-10-24T13:04:09.239Z,997.01
2016-10-24T13:05:17.963Z,997.02
2016-10-24T13:06:26.663Z,996.98
2016-10-24T13:07:35.369Z,996.99
2016-10-24T13:08:44.065Z,997
2016-10-24T13:09:52.758Z,996.96
2016-10-24T13:11:01.453Z,996.97
2016-10-24T13:12:10.149Z,996.92
2016-10-24T13:13:18.845Z,996.98
2016-10-24T13:14:27.543Z,996.95
2016-10-24T13:15:36.238Z,996.94
2016-10-24T13:16:44.940Z,996.9
2016-10-24T13:17:53.638Z,996.92
2016-10-24T13:19:02.339Z,996.9
2016-10-24T13:20:11.041Z,996.9
2016-10-24T13:21:19.736Z,996.89
2016-10-24T13:22:28.430Z,996.92
2016-10-24T13:23:37.123Z,996.95
2016-10-24T13:24:45.814Z,996.9
2016-10-24T13:25:54.508Z,996.97
2016-10-24T13:27:03.205Z,997
2016-10-24T13:28:11.900Z,996.98
2016-10-24T13:29:20.594Z,996.95
2016-10-24T13:30:29.320Z,996.95
2016-10-24T13:31:38.058Z,996.97
2016-10-24T13:32:46.793Z,996.97
2016-10-24T13:33:55.494Z,996.93
2016-10-24T13:35:04.191Z,996.96
2016-10-24T13:36:12.891Z,996.92
2016-10-24T13:37:21.588Z,996.92
2016-10-24T13:38:30.290Z,996.94
2016-10-24T13:39:38.991Z,996.9
2016-10-24T13:40:47.683Z,996.91
2016-10-24T13:41:56.376Z,996.9
2016-10-24T13:43:05.078Z,996.94
2016-10-24T13:44:13.777Z,996.93
2016-10-24T13:45:22.472Z,996.93
2016-10-24T13:46:31.171Z,996.92
2016-10-24T13:47:39.872Z,996.93
2016-10-24T13:48:48.573Z,996.93
2016-10-24T13:49:57.277Z,996.92
2016-10-24T13:51:05.976Z,996.91
2016-10-24T13:52:14.675Z,996.9
2016-10-24T13:53:23.365Z,996.89
2016-10-24T13:54:32.060Z,996.85
2016-10-24T13:55:40.754Z,996.82
2016-10-24T13:56:49.447Z,996.82
2016-10-24T13:57:58.144Z,996.83
2016-10-24T13:59:06.840Z,996.8
2016-10-24T14:00:15.548Z,996.81
2016-10-24T14:01:24.245Z,996.76
2016-10-24T14:02:33.084Z,996.81
2016-10-24T14:03:41.779Z,996.82
2016-10-24T14:04:50.484Z,996.78
2016-10-24T14:05:59.176Z,996.82
2016-10-24T14:07:08.188Z,996.81
2016-10-24T14:08:16.890Z,996.81
2016-10-24T14:09:25.613Z,996.82
2016-10-24T14:10:34.309Z,996.8
2016-10-24T14:11:43.048Z,996.81
2016-10-24T14:12:51.749Z,996.82
2016-10-24T14:14:00.447Z,996.81
2016-10-24T14:15:09.145Z,996.85
2016-10-24T14:16:17.848Z,996.81
2016-10-24T14:17:26.544Z,996.81
2016-10-24T14:18:35.241Z,996.83
2016-10-24T14:19:44.248Z,996.83
2016-10-24T14:20:52.940Z,996.82